createdAt,value
2024-01-07T00:01:47.938Z,1.00
2024-01-07T00:04:17.496Z,1.10
2024-01-07T00:06:44.840Z,1.10
2024-01-07T00:09:12.401Z,1.08
2024-01-07T00:11:39.765Z,0.90
2024-01-07T00:14:07.081Z,0.75
2024-01-07T00:16:34.381Z,0.80
2024-01-07T00:19:01.769Z,1.10
2024-01-07T00:21:30.582Z,1.02
2024-01-07T00:23:57.861Z,1.17
2024-01-07T00:26:25.128Z,1.15
2024-01-07T00:28:52.423Z,1.30
2024-01-07T00:31:19.788Z,1.48
2024-01-07T00:33:47.246Z,1.52
2024-01-07T00:36:14.549Z,1.30
2024-01-07T00:38:43.231Z,1.48
2024-01-07T00:41:10.519Z,1.55
2024-01-07T00:43:37.794Z,1.70
2024-01-07T00:46:05.552Z,1.27
2024-01-07T00:48:33.255Z,1.83
2024-01-07T00:51:01.305Z,1.70
2024-01-07T00:53:28.556Z,2.00
2024-01-07T00:55:58.237Z,1.70
2024-01-07T00:58:25.538Z,2.00
2024-01-07T01:00:52.853Z,2.22
2024-01-07T01:03:20.294Z,2.13
2024-01-07T01:05:47.801Z,3.38
2024-01-07T01:08:15.116Z,2.33
2024-01-07T01:10:43.879Z,2.72
2024-01-07T01:13:12.594Z,2.65
2024-01-07T01:15:39.975Z,3.13
2024-01-07T01:18:07.362Z,2.45
2024-01-07T01:20:34.695Z,2.63
2024-01-07T01:23:02.025Z,3.42
2024-01-07T01:25:29.304Z,3.35
2024-01-07T01:27:57.130Z,3.13
2024-01-07T01:30:25.928Z,4.15
2024-01-07T01:32:53.451Z,4.28
2024-01-07T01:35:20.789Z,4.90
2024-01-07T01:37:48.053Z,3.95
2024-01-07T01:40:17.330Z,4.95
2024-01-07T01:42:45.109Z,4.80
2024-01-07T01:45:12.447Z,4.80
2024-01-07T01:47:41.398Z,4.00
2024-01-07T01:50:09.407Z,5.15
2024-01-07T01:52:36.794Z,6.10
2024-01-07T01:55:05.212Z,7.50
2024-01-07T01:57:35.058Z,7.50
2024-01-07T02:00:03.916Z,8.13
2024-01-07T02:02:32.880Z,5.90
2024-01-07T02:05:01.740Z,7.30
2024-01-07T02:07:31.257Z,8.10
2024-01-07T02:09:58.649Z,7.88
2024-01-07T02:12:26.070Z,6.38
2024-01-07T02:14:53.372Z,7.20
2024-01-07T02:17:21.175Z,9.27
2024-01-07T02:19:48.945Z,9.93
2024-01-07T02:22:17.768Z,12.52
2024-01-07T02:24:46.456Z,13.18
2024-01-07T02:27:13.800Z,11.60
2024-01-07T02:29:41.101Z,13.70
2024-01-07T02:32:09.174Z,13.35
2024-01-07T02:34:36.496Z,13.52
2024-01-07T02:37:04.267Z,13.85
2024-01-07T02:39:31.654Z,13.45
2024-01-07T02:42:00.340Z,13.00
2024-01-07T02:44:27.627Z,11.73
2024-01-07T02:46:54.940Z,11.57
2024-01-07T02:49:22.336Z,12.25
2024-01-07T02:51:49.679Z,11.98
2024-01-07T02:54:17.286Z,10.95
2024-01-07T02:56:44.536Z,12.20
2024-01-07T02:59:13.255Z,9.50
2024-01-07T03:01:40.601Z,11.95
2024-01-07T03:04:08.341Z,10.60
2024-01-07T03:06:35.696Z,11.70
2024-01-07T03:09:03.164Z,11.80
2024-01-07T03:11:30.678Z,12.02
2024-01-07T03:13:58.077Z,12.75
2024-01-07T03:16:27.374Z,11.43
2024-01-07T03:18:54.734Z,7.18
2024-01-07T03:21:23.796Z,11.48
2024-01-07T03:23:52.330Z,10.68
2024-01-07T03:26:20.748Z,12.50
2024-01-07T03:28:48.173Z,10.38
2024-01-07T03:31:17.190Z,12.13
2024-01-07T03:33:46.178Z,10.80
2024-01-07T03:36:14.993Z,9.63
2024-01-07T03:38:42.573Z,6.90
2024-01-07T03:41:09.904Z,10.38
2024-01-07T03:43:37.185Z,12.38
2024-01-07T03:46:04.596Z,6.60
2024-01-07T03:48:32.091Z,11.95
2024-01-07T03:51:00.805Z,10.70
2024-01-07T03:53:28.080Z,9.43
2024-01-07T03:55:55.359Z,10.18
2024-01-07T03:58:22.630Z,8.00
2024-01-07T04:00:50.001Z,11.35
2024-01-07T04:03:17.558Z,9.40
2024-01-07T04:05:45.130Z,8.13
2024-01-07T04:08:13.847Z,9.32
2024-01-07T04:10:41.122Z,10.52
2024-01-07T04:13:08.551Z,9.95
2024-01-07T04:15:35.912Z,9.50
2024-01-07T04:18:03.407Z,9.82
2024-01-07T04:20:30.705Z,7.07
2024-01-07T04:22:58.181Z,4.88
2024-01-07T04:25:26.878Z,6.20
2024-01-07T04:27:54.210Z,7.72
2024-01-07T04:30:21.584Z,7.60
2024-01-07T04:32:48.981Z,5.43
2024-01-07T04:35:16.328Z,5.65
2024-01-07T04:37:43.676Z,8.73
2024-01-07T04:40:12.236Z,6.32
2024-01-07T04:42:40.976Z,8.45
2024-01-07T04:45:08.937Z,7.30
2024-01-07T04:47:36.248Z,8.18
2024-01-07T04:50:04.685Z,8.93
2024-01-07T04:52:31.977Z,8.93
2024-01-07T04:54:59.397Z,8.18
2024-01-07T04:57:26.761Z,8.02
2024-01-07T04:59:55.554Z,9.10
2024-01-07T05:02:22.833Z,7.05
2024-01-07T05:04:50.091Z,8.75
2024-01-07T05:07:17.493Z,8.20
2024-01-07T05:09:44.861Z,8.18
2024-01-07T05:12:12.226Z,9.02
2024-01-07T05:14:39.509Z,8.38
2024-01-07T05:17:08.174Z,7.70
2024-01-07T05:19:35.521Z,5.95
2024-01-07T05:22:02.908Z,5.97
2024-01-07T05:24:31.758Z,6.68
2024-01-07T05:27:00.237Z,8.65
2024-01-07T05:29:27.511Z,8.20
2024-01-07T05:31:54.786Z,7.85
2024-01-07T05:34:23.562Z,6.68
2024-01-07T05:36:50.988Z,7.75
2024-01-07T05:39:18.250Z,8.00
2024-01-07T05:41:45.517Z,6.63
2024-01-07T05:44:13.372Z,8.25
2024-01-07T05:46:40.975Z,6.22
2024-01-07T05:49:09.325Z,8.57
2024-01-07T05:51:41.173Z,8.27
2024-01-07T05:54:08.613Z,8.60
2024-01-07T05:56:39.812Z,8.20
2024-01-07T05:59:07.270Z,9.63
2024-01-07T06:01:34.711Z,4.57
2024-01-07T06:04:02.063Z,7.78
2024-01-07T06:06:29.641Z,6.70
2024-01-07T06:08:58.486Z,7.20
2024-01-07T06:11:25.768Z,7.88
2024-01-07T06:13:53.031Z,7.45
2024-01-07T06:16:20.309Z,6.85
2024-01-07T06:18:47.712Z,7.82
2024-01-07T06:21:15.112Z,7.80
2024-01-07T06:23:42.369Z,6.93
2024-01-07T06:26:11.014Z,7.13
2024-01-07T06:28:38.363Z,7.50
2024-01-07T06:31:05.839Z,7.55
2024-01-07T06:33:33.483Z,8.50
2024-01-07T06:36:01.275Z,7.93
2024-01-07T06:38:28.551Z,7.15
2024-01-07T06:40:58.508Z,6.50
2024-01-07T06:43:29.006Z,6.88
2024-01-07T06:45:56.669Z,6.45
2024-01-07T06:48:24.037Z,8.63
2024-01-07T06:50:51.376Z,6.53
2024-01-07T06:53:18.778Z,7.20
2024-01-07T06:55:46.084Z,6.57
2024-01-07T06:58:13.404Z,7.15
2024-01-07T07:00:42.180Z,6.55
2024-01-07T07:03:09.776Z,6.72
2024-01-07T07:05:37.126Z,8.52
2024-01-07T07:08:05.040Z,7.65
2024-01-07T07:10:32.314Z,5.75
2024-01-07T07:12:59.633Z,5.90
2024-01-07T07:15:26.965Z,5.00
2024-01-07T07:17:56.006Z,5.93
2024-01-07T07:20:23.360Z,7.07
2024-01-07T07:22:50.620Z,6.30
2024-01-07T07:25:17.953Z,5.80
2024-01-07T07:27:45.364Z,6.32
2024-01-07T07:30:12.974Z,5.32
2024-01-07T07:32:40.965Z,4.63
2024-01-07T07:35:09.836Z,4.25
2024-01-07T07:37:37.128Z,4.90
2024-01-07T07:40:05.389Z,4.20
2024-01-07T07:42:32.817Z,5.53
2024-01-07T07:45:00.222Z,5.45
2024-01-07T07:47:27.624Z,6.40
2024-01-07T07:49:55.042Z,4.85
2024-01-07T07:52:23.781Z,5.60
2024-01-07T07:54:51.148Z,6.60
2024-01-07T07:57:18.580Z,5.95
2024-01-07T07:59:45.869Z,6.00
2024-01-07T08:02:13.557Z,5.93
2024-01-07T08:04:40.860Z,5.07
2024-01-07T08:07:08.285Z,6.10
2024-01-07T08:09:37.219Z,5.20
2024-01-07T08:12:05.474Z,6.13
2024-01-07T08:14:33.510Z,5.88
2024-01-07T08:17:00.787Z,6.25
2024-01-07T08:19:28.149Z,5.68
2024-01-07T08:21:55.469Z,6.03
2024-01-07T08:24:22.746Z,6.18
2024-01-07T08:26:51.423Z,6.80
2024-01-07T08:29:18.761Z,5.55
2024-01-07T08:31:46.139Z,5.80
2024-01-07T08:34:13.544Z,6.25
2024-01-07T08:36:40.881Z,5.82
2024-01-07T08:39:08.275Z,5.88
2024-01-07T08:41:35.530Z,6.53
2024-01-07T08:44:04.356Z,6.30
2024-01-07T08:46:31.628Z,6.78
2024-01-07T08:48:59.070Z,6.57
2024-01-07T08:51:26.874Z,7.65
2024-01-07T08:54:31.381Z,6.68
2024-01-07T08:57:01.577Z,5.57
2024-01-07T08:59:30.143Z,4.63
2024-01-07T09:01:57.420Z,7.57
2024-01-07T09:04:24.753Z,6.95
2024-01-07T09:06:52.036Z,4.05
2024-01-07T09:09:19.335Z,6.30
2024-01-07T09:11:46.666Z,8.30
2024-01-07T09:14:13.983Z,6.30
2024-01-07T09:16:42.622Z,6.50
2024-01-07T09:19:11.591Z,5.82
2024-01-07T09:21:40.940Z,6.18
2024-01-07T09:24:08.335Z,6.03
2024-01-07T09:26:35.668Z,7.30
2024-01-07T09:29:02.964Z,6.53
2024-01-07T09:31:30.363Z,4.70
2024-01-07T09:33:59.133Z,6.80
2024-01-07T09:36:30.289Z,5.97
2024-01-07T09:38:58.353Z,6.38
2024-01-07T09:41:26.306Z,6.05
2024-01-07T09:43:54.002Z,5.85
2024-01-07T10:47:14.325Z,6.82
2024-01-07T10:49:45.323Z,6.70
2024-01-07T10:52:12.377Z,7.70
2024-01-07T10:54:40.376Z,5.15
2024-01-07T10:57:10.424Z,6.65
2024-01-07T10:59:37.632Z,5.90
2024-01-07T11:02:04.861Z,5.88
2024-01-07T11:04:38.855Z,6.57
2024-01-07T11:07:13.246Z,5.25
2024-01-07T11:09:44.484Z,6.13
2024-01-07T11:12:11.656Z,7.15
2024-01-07T11:14:38.977Z,6.13
2024-01-07T11:17:06.147Z,5.40
2024-01-07T11:19:35.958Z,6.55
2024-01-07T11:22:17.729Z,6.00
2024-01-07T11:24:44.616Z,5.93
2024-01-07T11:27:11.526Z,6.00
2024-01-07T11:29:38.398Z,6.75
2024-01-07T11:32:06.779Z,6.35
2024-01-07T11:34:41.193Z,6.57
2024-01-07T11:37:10.830Z,5.63
2024-01-07T11:39:37.829Z,7.85
2024-01-07T11:42:04.901Z,7.13
2024-01-07T11:44:34.197Z,5.57
2024-01-07T11:47:01.050Z,6.50
2024-01-07T11:49:28.005Z,5.95
2024-01-07T11:51:56.295Z,5.82
2024-01-07T11:54:23.241Z,6.18
2024-01-07T11:56:50.142Z,6.28
2024-01-07T11:59:17.110Z,6.93
2024-01-07T12:01:44.031Z,6.47
2024-01-07T12:04:11.107Z,7.47
2024-01-07T12:06:38.991Z,5.90
2024-01-07T12:09:07.260Z,7.72
2024-01-07T12:11:34.785Z,6.88
2024-01-07T12:14:01.754Z,6.05
2024-01-07T12:16:28.777Z,6.85
2024-01-07T12:18:55.969Z,6.72
2024-01-07T12:21:23.064Z,6.78
2024-01-07T12:23:50.753Z,6.68
2024-01-07T12:26:19.268Z,5.90
2024-01-07T12:28:46.176Z,5.97
2024-01-07T12:31:13.221Z,5.72
2024-01-07T12:33:40.794Z,5.00
2024-01-07T12:36:07.842Z,5.07
2024-01-07T12:38:37.356Z,4.75
2024-01-07T12:41:04.365Z,6.88
2024-01-07T12:43:32.602Z,5.32
2024-01-07T12:45:59.660Z,5.40
2024-01-07T12:48:26.668Z,5.05
2024-01-07T12:50:53.602Z,4.80
2024-01-07T12:53:20.543Z,4.45
2024-01-07T12:55:47.404Z,4.10
2024-01-07T12:58:14.356Z,4.93
2024-01-07T13:00:42.670Z,4.22
2024-01-07T13:03:09.720Z,4.80
2024-01-07T13:05:36.789Z,3.50
2024-01-07T13:08:04.106Z,4.05
2024-01-07T13:10:30.996Z,4.05
2024-01-07T13:13:04.886Z,2.90
2024-01-07T13:15:35.151Z,3.55
2024-01-07T13:18:03.782Z,3.30
2024-01-07T13:20:30.691Z,2.35
2024-01-07T13:22:57.662Z,3.60
2024-01-07T13:25:24.545Z,3.55
2024-01-07T13:27:51.511Z,3.38
2024-01-07T13:30:18.467Z,3.85
2024-01-07T13:32:45.425Z,3.38
2024-01-07T13:35:13.787Z,3.47
2024-01-07T13:37:40.705Z,3.13
2024-01-07T13:40:08.256Z,3.13
2024-01-07T13:42:35.198Z,3.40
2024-01-07T13:45:02.226Z,2.83
2024-01-07T13:47:29.690Z,2.42
2024-01-07T13:49:56.692Z,2.53
2024-01-07T13:52:25.003Z,2.00
2024-01-07T13:54:51.975Z,2.17
2024-01-07T13:57:18.857Z,2.50
2024-01-07T13:59:45.723Z,1.58
2024-01-07T14:02:12.670Z,2.58
2024-01-07T14:04:39.557Z,2.60
2024-01-07T14:07:06.553Z,2.88
2024-01-07T14:09:34.943Z,2.40
2024-01-07T14:12:01.855Z,1.80
2024-01-07T14:14:28.842Z,2.03
2024-01-07T14:16:55.724Z,2.33
2024-01-07T14:19:22.689Z,1.75
2024-01-07T14:21:50.447Z,1.95
2024-01-07T14:24:17.400Z,1.80
2024-01-07T14:26:45.845Z,2.17
2024-01-07T14:29:17.083Z,1.83
2024-01-07T14:31:45.360Z,1.98
2024-01-07T14:34:12.366Z,2.47
2024-01-07T14:36:40.560Z,2.67
2024-01-07T14:39:07.474Z,1.80
2024-01-07T14:41:34.316Z,1.60
2024-01-07T14:44:05.108Z,1.25
2024-01-07T14:46:34.464Z,1.73
2024-01-07T14:49:01.432Z,1.85
2024-01-07T14:51:28.427Z,1.40
2024-01-07T14:53:55.294Z,2.00
2024-01-07T14:56:22.223Z,2.55
2024-01-07T14:58:49.063Z,1.80
2024-01-07T15:01:17.337Z,1.83
2024-01-07T15:03:44.268Z,1.88
2024-01-07T15:06:11.214Z,2.00
2024-01-07T15:08:38.108Z,1.83
2024-01-07T15:11:05.325Z,2.13
2024-01-07T15:13:32.205Z,1.80
2024-01-07T15:15:59.136Z,1.83
2024-01-07T15:18:27.529Z,2.03
2024-01-07T15:20:54.460Z,1.92
2024-01-07T15:23:21.322Z,2.08
2024-01-07T15:25:48.231Z,1.73
2024-01-07T15:28:15.278Z,1.65
2024-01-07T15:30:42.318Z,2.28
2024-01-07T15:33:09.325Z,2.00
2024-01-07T15:35:37.661Z,2.42
2024-01-07T15:38:04.518Z,1.38
2024-01-07T15:40:31.398Z,2.60
2024-01-07T15:42:59.203Z,1.88
2024-01-07T15:45:26.137Z,1.98
2024-01-07T15:47:53.211Z,1.70
2024-01-07T15:50:20.155Z,2.47
2024-01-07T15:52:48.549Z,2.20
2024-01-07T15:55:15.559Z,1.70
2024-01-07T15:57:42.650Z,1.90
2024-01-07T16:00:10.111Z,1.58
2024-01-07T16:02:36.980Z,1.98
2024-01-07T16:05:04.255Z,1.83
2024-01-07T16:07:31.158Z,3.03
2024-01-07T16:09:59.440Z,3.28
2024-01-07T16:12:26.291Z,1.45
2024-01-07T16:14:53.265Z,1.45
2024-01-07T16:17:20.155Z,1.27
2024-01-07T16:19:47.040Z,1.35
2024-01-07T16:22:14.107Z,1.27
2024-01-07T16:24:41.447Z,1.67
2024-01-07T16:27:10.025Z,1.60
2024-01-07T16:29:44.430Z,1.25
2024-01-07T16:32:12.894Z,1.67
2024-01-07T16:34:39.909Z,1.60
2024-01-07T16:37:06.813Z,1.73
2024-01-07T16:39:33.763Z,1.60
2024-01-07T16:42:00.691Z,2.15
2024-01-07T16:44:28.930Z,1.75
2024-01-07T16:46:55.794Z,2.50
2024-01-07T16:51:52.626Z,1.58
2024-01-07T16:54:19.548Z,1.98
2024-01-07T16:56:46.513Z,2.08
2024-01-07T16:59:13.483Z,2.80
2024-01-07T17:01:41.798Z,4.75
2024-01-07T17:04:08.688Z,3.15
2024-01-07T17:06:35.558Z,2.45
2024-01-07T17:09:02.453Z,2.10
2024-01-07T17:11:29.346Z,1.98
2024-01-07T17:13:56.347Z,2.40
2024-01-07T17:16:23.203Z,1.70
2024-01-07T17:18:51.538Z,1.80
2024-01-07T17:21:18.406Z,2.40
2024-01-07T17:23:45.250Z,1.83
2024-01-07T17:26:12.314Z,1.30
2024-01-07T17:28:39.181Z,2.10
2024-01-07T17:31:06.211Z,1.90
2024-01-07T17:33:33.222Z,2.47
2024-01-07T17:36:01.500Z,3.28
2024-01-07T17:38:28.407Z,3.55
2024-01-07T17:40:55.344Z,3.10
2024-01-07T17:43:22.417Z,1.98
2024-01-07T17:45:49.287Z,2.13
2024-01-07T17:48:16.271Z,1.50
2024-01-07T17:50:45.119Z,1.70
2024-01-07T17:53:14.783Z,1.88
2024-01-07T17:55:41.903Z,2.10
2024-01-07T17:58:08.758Z,2.30
2024-01-07T18:00:35.677Z,2.10
2024-01-07T18:03:03.075Z,1.85
2024-01-07T18:05:30.254Z,1.70
2024-01-07T18:07:57.322Z,1.80
2024-01-07T18:10:25.609Z,1.20
2024-01-07T18:12:52.629Z,1.55
2024-01-07T18:15:19.518Z,2.45
2024-01-07T18:17:46.434Z,3.05
2024-01-07T18:20:13.751Z,2.53
2024-01-07T18:22:40.916Z,2.10
2024-01-07T18:25:08.296Z,2.65
2024-01-07T18:27:36.726Z,1.90
2024-01-07T18:30:03.928Z,2.50
2024-01-07T18:32:30.928Z,2.20
2024-01-07T18:34:57.879Z,1.70
2024-01-07T18:37:24.778Z,2.28
2024-01-07T18:39:51.736Z,1.75
2024-01-07T18:42:18.629Z,2.17
2024-01-07T18:44:46.854Z,1.40
2024-01-07T18:47:13.906Z,1.40
2024-01-07T18:49:41.352Z,2.30
2024-01-07T18:52:08.331Z,1.90
2024-01-07T18:54:39.012Z,1.38
2024-01-07T18:57:06.058Z,1.67
2024-01-07T18:59:33.014Z,2.42
2024-01-07T19:02:01.338Z,2.22
2024-01-07T19:04:28.390Z,1.55
2024-01-07T19:06:55.304Z,1.50
2024-01-07T19:09:22.251Z,1.67
2024-01-07T19:11:49.157Z,2.10
2024-01-07T19:14:16.070Z,1.30
2024-01-07T19:16:43.338Z,1.92
2024-01-07T19:19:11.753Z,1.35
2024-01-07T19:21:41.043Z,1.73
2024-01-07T19:24:08.933Z,2.08
2024-01-07T19:26:36.000Z,1.63
2024-01-07T19:29:02.946Z,2.63
2024-01-07T19:31:29.817Z,2.00
2024-01-07T19:33:56.824Z,2.08
2024-01-07T19:36:25.166Z,2.17
2024-01-07T19:38:52.042Z,2.67
2024-01-07T19:41:22.007Z,1.80
2024-01-07T19:43:49.000Z,2.22
2024-01-07T19:46:22.604Z,2.13
2024-01-07T19:48:49.495Z,2.03
2024-01-07T19:51:16.409Z,1.70
2024-01-07T19:53:44.673Z,1.60
2024-01-07T19:56:11.579Z,2.10
2024-01-07T19:58:38.458Z,1.60
2024-01-07T20:01:05.395Z,1.63
2024-01-07T20:03:32.434Z,1.45
2024-01-07T20:06:00.093Z,1.85
2024-01-07T20:08:27.286Z,1.25
2024-01-07T20:10:55.586Z,1.83
2024-01-07T20:13:22.483Z,1.70
2024-01-07T20:15:49.356Z,1.60
2024-01-07T20:18:16.364Z,1.70
2024-01-07T20:20:43.286Z,1.90
2024-01-07T20:23:10.262Z,1.80
2024-01-07T20:25:38.195Z,2.03
2024-01-07T20:28:06.605Z,3.10
2024-01-07T20:30:33.549Z,3.42
2024-01-07T20:33:00.637Z,4.93
2024-01-07T20:35:27.574Z,4.43
2024-01-07T20:37:54.646Z,2.40
2024-01-07T20:40:21.645Z,1.80
2024-01-07T20:42:48.555Z,1.70
2024-01-07T20:45:16.868Z,1.90
2024-01-07T20:47:43.941Z,2.08
2024-01-07T20:50:11.314Z,2.40
2024-01-07T20:52:38.303Z,1.90
2024-01-07T20:55:05.339Z,2.08
2024-01-07T20:57:32.239Z,2.00
2024-01-07T20:59:59.120Z,1.85
2024-01-07T21:02:27.481Z,1.60
2024-01-07T21:04:54.449Z,1.60
2024-01-07T21:07:21.368Z,1.88
2024-01-07T21:09:48.231Z,1.40
2024-01-07T21:12:15.070Z,1.67
2024-01-07T21:14:41.930Z,1.35
2024-01-07T21:17:08.937Z,1.27
2024-01-07T21:19:37.189Z,2.00
2024-01-07T21:22:04.230Z,1.42
2024-01-07T21:24:31.101Z,1.38
2024-01-07T21:26:58.085Z,2.25
2024-01-07T21:29:25.348Z,1.90
2024-01-07T21:31:52.302Z,2.47
2024-01-07T21:34:19.376Z,2.15
2024-01-07T21:36:47.727Z,1.50
2024-01-07T21:39:14.580Z,1.13
2024-01-07T21:41:41.912Z,1.90
2024-01-07T21:44:08.950Z,1.23
2024-01-07T21:46:35.879Z,3.35
2024-01-07T21:49:02.820Z,2.03
2024-01-07T21:51:29.660Z,4.95
2024-01-07T21:53:57.937Z,1.65
2024-01-07T21:56:24.790Z,3.45
2024-01-07T21:58:51.721Z,2.40
2024-01-07T22:01:18.636Z,2.60
2024-01-07T22:03:45.634Z,1.13
2024-01-07T22:06:12.669Z,1.52
2024-01-07T22:08:39.807Z,1.02
2024-01-07T22:11:12.772Z,0.93
2024-01-07T22:13:39.643Z,1.33
2024-01-07T22:16:09.317Z,1.08
2024-01-07T22:18:36.252Z,1.02
2024-01-07T22:21:03.308Z,1.05
2024-01-07T22:23:30.240Z,1.35
2024-01-07T22:25:57.239Z,0.90
2024-01-07T22:28:25.540Z,1.20
2024-01-07T22:30:52.513Z,1.17
2024-01-07T22:33:19.627Z,1.27
2024-01-07T22:35:46.619Z,1.13
2024-01-07T22:38:13.596Z,1.13
2024-01-07T22:40:40.555Z,1.38
2024-01-07T22:43:07.415Z,1.25
2024-01-07T22:45:35.694Z,1.30
2024-01-07T22:48:02.773Z,1.10
2024-01-07T22:50:29.828Z,1.65
2024-01-07T22:52:56.715Z,1.35
2024-01-07T22:55:23.725Z,1.15
2024-01-07T22:57:50.653Z,1.30
2024-01-07T23:00:17.685Z,1.40
2024-01-07T23:02:46.223Z,1.30
2024-01-07T23:05:13.490Z,1.55
2024-01-07T23:07:40.792Z,1.20
2024-01-07T23:10:08.050Z,1.33
2024-01-07T23:12:34.972Z,1.38
2024-01-07T23:15:01.881Z,0.90
2024-01-07T23:17:28.955Z,1.20
2024-01-07T23:19:57.247Z,1.23
2024-01-07T23:22:24.427Z,1.60
2024-01-07T23:24:51.342Z,1.10
2024-01-07T23:27:18.321Z,1.00
2024-01-07T23:29:45.248Z,1.00
2024-01-07T23:32:12.231Z,1.45
2024-01-07T23:34:39.445Z,1.20
2024-01-07T23:37:07.707Z,1.02
2024-01-07T23:39:34.835Z,1.27
2024-01-07T23:42:01.726Z,2.20
2024-01-07T23:44:28.657Z,1.00
2024-01-07T23:46:55.576Z,1.30
2024-01-07T23:49:22.578Z,2.22
2024-01-07T23:51:49.488Z,1.48
2024-01-07T23:54:17.829Z,1.80
2024-01-07T23:56:44.742Z,1.42
2024-01-07T23:59:11.807Z,1.80
